Time;durP1;ratioP1;P1;durP2;ratioP2;P2;SDS_P1;SDS_P2;PMS_P1;PMS_P2;Temp;Humidity;BMP_temperature;BMP_pressure;BME280_temperature;BME280_humidity;BME280_pressure;Samples;Min_cycle;Max_cycle;Signal;HPM_P1;HPM_P2
2021/12/18 00:02:15;;;;;;;;;;;;;;;;;;2218959;58;1249;-70
2021/12/18 00:04:48;;;;;;;;;;;;;;;;;;2219439;66;1298;-70
2021/12/18 00:07:24;;;;;;;;;;;;;;;;;;2218692;66;1099;-70
2021/12/18 00:09:58;;;;;;;;;;;;;;;;;;2218048;66;1257;-70
2021/12/18 00:12:31;;;;;;;;;;;;;;;;;;2218707;58;1940;-70
2021/12/18 00:15:05;;;;;;;;;;;;;;;;;;2217124;66;1079;-70
2021/12/18 00:17:39;;;;;;;;;;;;;;;;;;2218596;66;1132;-70
2021/12/18 00:20:13;;;;;;;;;;;;;;;;;;2219473;58;1545;-70
2021/12/18 00:25:38;;;;;;;;;;;;;;;;;;2217722;59;1106;-70
2021/12/18 00:28:12;;;;;;;;;;;;;;;;;;2218818;66;1042;-70
2021/12/18 00:30:45;;;;;;;;;;;;;;;;;;2218766;66;1567;-70
2021/12/18 00:33:19;;;;;;;;;;;;;;;;;;2219051;58;1936;-70
2021/12/18 00:35:52;;;;;;;;;;;;;;;;;;2217837;58;1517;-70
2021/12/18 00:38:30;;;;;;;;;;;;;;;;;;2217437;66;1253;-70
2021/12/18 00:41:34;;;;;;;;;;;;;;;;;;2218491;59;1530;-71
2021/12/18 00:44:12;;;;;;;;;;;;;;;;;;2217464;58;1863;-70
2021/12/18 00:46:46;;;;;;;;;;;;;;;;;;2217927;66;1108;-70
2021/12/18 00:49:22;;;;;;;;;;;;;;;;;;2218582;66;1096;-70
2021/12/18 00:51:55;;;;;;;;;;;;;;;;;;2218834;66;1936;-70
2021/12/18 00:54:32;;;;;;;;;;;;;;;;;;2217631;66;1112;-70
2021/12/18 00:57:05;;;;;;;;;;;;;;;;;;2218636;58;1636;-70
2021/12/18 00:59:39;;;;;;;;;;;;;;;;;;2217565;66;1108;-70
2021/12/18 01:02:12;;;;;;;;;;;;;;;;;;2217650;66;1225;-70
2021/12/18 01:04:46;;;;;;;;;;;;;;;;;;2217215;66;1153;-70
2021/12/18 01:07:19;;;;;;;;;;;;;;;;;;2219049;66;1226;-70
2021/12/18 01:10:04;;;;;;;;;;;;;;;;;;2217810;66;1177;-70
2021/12/18 01:12:42;;;;;;;;;;;;;;;;;;2218308;58;2008;-70
2021/12/18 01:15:26;;;;;;;;;;;;;;;;;;2216994;58;1848;-70
2021/12/18 01:23:38;;;;;;;;;;;;;;;;;;2217303;66;1331;-70
2021/12/18 01:26:14;;;;;;;;;;;;;;;;;;2217906;66;1133;-70
2021/12/18 01:28:47;;;;;;;;;;;;;;;;;;2217619;66;1247;-70
2021/12/18 01:31:23;;;;;;;;;;;;;;;;;;2219012;66;1205;-70
2021/12/18 01:33:57;;;;;;;;;;;;;;;;;;2217938;66;1223;-70
2021/12/18 01:36:31;;;;;;;;;;;;;;;;;;2217946;66;1057;-70
2021/12/18 01:39:05;;;;;;;;;;;;;;;;;;2218233;59;1144;-70
2021/12/18 01:42:00;;;;;;;;;;;;;;;;;;2216893;66;1241;-70
2021/12/18 01:44:52;;;;;;;;;;;;;;;;;;2217931;66;1045;-70
2021/12/18 01:53:07;;;;;;;;;;;;;;;;;;2217841;66;1929;-70
2021/12/18 01:55:44;;;;;;;;;;;;;;;;;;2217046;58;1578;-70
2021/12/18 01:58:22;;;;;;;;;;;;;;;;;;2217454;58;1345;-70
2021/12/18 02:00:56;;;;;;;;;;;;;;;;;;2217831;66;1266;-70
2021/12/18 02:03:30;;;;;;;;;;;;;;;;;;2217826;66;1072;-70
2021/12/18 02:06:03;;;;;;;;;;;;;;;;;;2217490;66;1098;-70
2021/12/18 02:08:38;;;;;;;;;;;;;;;;;;2217490;66;1105;-70
2021/12/18 02:11:22;;;;;;;;;;;;;;;;;;2218316;54;3592;-71
2021/12/18 02:19:50;;;;;;;;;;;;;;;;;;2198737;59;1383;-70
2021/12/18 02:22:27;;;;;;;;;;;;;;;;;;2202082;59;1328;-70
2021/12/18 02:25:00;;;;;;;;;;;;;;;;;;2199089;59;1262;-70
2021/12/18 02:27:34;;;;;;;;;;;;;;;;;;2202322;67;1299;-71
2021/12/18 02:30:08;;;;;;;;;;;;;;;;;;2200664;59;1440;-70
2021/12/18 02:32:41;;;;;;;;;;;;;;;;;;2198714;59;1937;-70
2021/12/18 02:35:26;;;;;;;;;;;;;;;;;;2199602;67;1236;-71
2021/12/18 02:38:15;;;;;;;;;;;;;;;;;;2199946;67;1177;-70
2021/12/18 02:40:58;;;;;;;;;;;;;;;;;;2199404;59;1149;-70
2021/12/18 02:43:32;;;;;;;;;;;;;;;;;;2199306;59;1420;-70
2021/12/18 02:46:07;;;;;;;;;;;;;;;;;;2199194;59;1120;-71
2021/12/18 02:48:42;;;;;;;;;;;;;;;;;;2198454;67;1244;-70
2021/12/18 02:51:16;;;;;;;;;;;;;;;;;;2199204;59;5275;-71
2021/12/18 02:53:52;;;;;;;;;;;;;;;;;;2200508;66;1928;-71
2021/12/18 02:56:25;;;;;;;;;;;;;;;;;;2199323;67;1759;-70
2021/12/18 02:59:04;;;;;;;;;;;;;;;;;;2199714;59;1665;-71
2021/12/18 03:01:39;;;;;;;;;;;;;;;;;;2199842;59;1323;-71
2021/12/18 03:04:18;;;;;;;;;;;;;;;;;;2200905;67;1143;-71
2021/12/18 03:06:55;;;;;;;;;;;;;;;;;;2201425;67;1294;-70
2021/12/18 03:23:39;;;;;;;;;;;;;;;;;;2199346;59;1342;-70
2021/12/18 03:26:15;;;;;;;;;;;;;;;;;;2200047;59;1226;-71
2021/12/18 03:28:48;;;;;;;;;;;;;;;;;;2199922;67;1888;-70
2021/12/18 03:31:22;;;;;;;;;;;;;;;;;;2199899;59;1397;-70
2021/12/18 03:33:55;;;;;;;;;;;;;;;;;;2200183;67;1980;-71
2021/12/18 03:36:28;;;;;;;;;;;;;;;;;;2201053;67;1125;-71
2021/12/18 03:39:01;;;;;;;;;;;;;;;;;;2203529;59;1284;-71
2021/12/18 03:41:38;;;;;;;;;;;;;;;;;;2200420;67;1252;-70
2021/12/18 03:44:11;;;;;;;;;;;;;;;;;;2199539;59;1182;-70
2021/12/18 03:46:44;;;;;;;;;;;;;;;;;;2200552;66;1240;-70
2021/12/18 03:49:17;;;;;;;;;;;;;;;;;;2201627;67;1286;-70
2021/12/18 03:51:50;;;;;;;;;;;;;;;;;;2199674;67;1177;-71
2021/12/18 03:54:23;;;;;;;;;;;;;;;;;;2200300;67;1895;-70
2021/12/18 03:56:59;;;;;;;;;;;;;;;;;;2200841;59;1385;-70
2021/12/18 03:59:33;;;;;;;;;;;;;;;;;;2201452;59;1180;-70
2021/12/18 04:02:06;;;;;;;;;;;;;;;;;;2200471;59;1360;-70
2021/12/18 04:04:39;;;;;;;;;;;;;;;;;;2200854;59;1128;-70
2021/12/18 04:07:14;;;;;;;;;;;;;;;;;;2201539;66;1196;-70
2021/12/18 04:09:48;;;;;;;;;;;;;;;;;;2204371;67;1202;-70
2021/12/18 04:12:24;;;;;;;;;;;;;;;;;;2199916;59;1929;-70
2021/12/18 04:14:57;;;;;;;;;;;;;;;;;;2199683;67;1188;-70
2021/12/18 04:17:30;;;;;;;;;;;;;;;;;;2203067;59;1898;-70
2021/12/18 04:20:03;;;;;;;;;;;;;;;;;;2201305;67;1035;-70
2021/12/18 04:22:37;;;;;;;;;;;;;;;;;;2199519;59;1435;-71
2021/12/18 04:25:10;;;;;;;;;;;;;;;;;;2199826;67;1273;-70
2021/12/18 04:27:46;;;;;;;;;;;;;;;;;;2201101;67;1235;-70
2021/12/18 04:30:19;;;;;;;;;;;;;;;;;;2199826;59;1875;-70
2021/12/18 04:32:52;;;;;;;;;;;;;;;;;;2200415;67;1933;-71
2021/12/18 04:35:27;;;;;;;;;;;;;;;;;;2199225;67;1208;-70
2021/12/18 04:38:00;;;;;;;;;;;;;;;;;;2199768;67;1191;-71
2021/12/18 04:40:34;;;;;;;;;;;;;;;;;;2199893;67;1124;-71
2021/12/18 04:43:10;;;;;;;;;;;;;;;;;;2199763;59;1362;-70
2021/12/18 04:45:44;;;;;;;;;;;;;;;;;;2201986;66;1168;-70
2021/12/18 04:48:17;;;;;;;;;;;;;;;;;;2200151;67;1209;-70
2021/12/18 04:50:50;;;;;;;;;;;;;;;;;;2200875;67;1213;-70
2021/12/18 04:53:23;;;;;;;;;;;;;;;;;;2199440;59;1931;-70
2021/12/18 04:55:56;;;;;;;;;;;;;;;;;;2200334;59;1464;-70
2021/12/18 04:58:32;;;;;;;;;;;;;;;;;;2199599;67;1334;-70
2021/12/18 05:01:06;;;;;;;;;;;;;;;;;;2199636;59;1250;-71
2021/12/18 05:03:40;;;;;;;;;;;;;;;;;;2199311;59;1703;-71
2021/12/18 05:06:13;;;;;;;;;;;;;;;;;;2201437;67;1068;-70
2021/12/18 05:08:46;;;;;;;;;;;;;;;;;;2205849;66;1279;-70
2021/12/18 05:11:20;;;;;;;;;;;;;;;;;;2200177;59;1269;-70
2021/12/18 05:13:56;;;;;;;;;;;;;;;;;;2199025;67;1929;-70
2021/12/18 05:16:29;;;;;;;;;;;;;;;;;;2199996;59;1151;-70
2021/12/18 05:19:02;;;;;;;;;;;;;;;;;;2199868;67;1257;-70
2021/12/18 05:21:36;;;;;;;;;;;;;;;;;;2200076;67;1255;-70
2021/12/18 05:24:09;;;;;;;;;;;;;;;;;;2198301;59;1501;-70
2021/12/18 05:26:42;;;;;;;;;;;;;;;;;;2199386;67;1156;-70
2021/12/18 05:29:18;;;;;;;;;;;;;;;;;;2199723;59;1348;-71
2021/12/18 05:31:51;;;;;;;;;;;;;;;;;;2199476;58;1167;-70
2021/12/18 05:34:26;;;;;;;;;;;;;;;;;;2199630;59;1944;-70
2021/12/18 05:39:50;;;;;;;;;;;;;;;;;;2198779;67;1161;-70
2021/12/18 05:42:23;;;;;;;;;;;;;;;;;;2199391;67;1405;-70
2021/12/18 05:44:59;;;;;;;;;;;;;;;;;;2198924;59;1259;-70
2021/12/18 05:47:32;;;;;;;;;;;;;;;;;;2200404;67;1303;-70
2021/12/18 05:50:06;;;;;;;;;;;;;;;;;;2200022;59;1151;-71
2021/12/18 05:52:39;;;;;;;;;;;;;;;;;;2199217;67;1213;-70
2021/12/18 05:55:13;;;;;;;;;;;;;;;;;;2199380;59;1987;-70
2021/12/18 05:57:47;;;;;;;;;;;;;;;;;;2199558;59;1590;-71
2021/12/18 06:00:23;;;;;;;;;;;;;;;;;;2199545;67;1161;-71
2021/12/18 06:02:56;;;;;;;;;;;;;;;;;;2198255;59;1424;-70
2021/12/18 06:05:29;;;;;;;;;;;;;;;;;;2199524;67;1193;-71
2021/12/18 06:08:05;;;;;;;;;;;;;;;;;;2199686;67;1184;-70
2021/12/18 06:10:38;;;;;;;;;;;;;;;;;;2199885;67;1115;-71
2021/12/18 06:13:11;;;;;;;;;;;;;;;;;;2199568;59;1925;-71
2021/12/18 06:15:47;;;;;;;;;;;;;;;;;;2199835;59;1086;-70
2021/12/18 06:18:20;;;;;;;;;;;;;;;;;;2199626;67;1123;-71
2021/12/18 06:20:53;;;;;;;;;;;;;;;;;;2199801;67;1296;-70
2021/12/18 06:23:26;;;;;;;;;;;;;;;;;;2198354;58;1232;-70
2021/12/18 06:26:00;;;;;;;;;;;;;;;;;;2200245;67;1381;-70
2021/12/18 06:28:33;;;;;;;;;;;;;;;;;;2199869;67;1273;-70
2021/12/18 06:31:10;;;;;;;;;;;;;;;;;;2199665;59;1322;-70
2021/12/18 06:33:43;;;;;;;;;;;;;;;;;;2199408;67;1929;-70
2021/12/18 06:36:16;;;;;;;;;;;;;;;;;;2199984;67;1137;-70
2021/12/18 06:38:49;;;;;;;;;;;;;;;;;;2201513;66;1100;-71
2021/12/18 06:41:22;;;;;;;;;;;;;;;;;;2199904;66;1244;-70
2021/12/18 06:43:55;;;;;;;;;;;;;;;;;;2199982;59;1315;-71
2021/12/18 06:46:31;;;;;;;;;;;;;;;;;;2200215;67;1266;-71
2021/12/18 06:49:06;;;;;;;;;;;;;;;;;;2200034;66;1155;-70
2021/12/18 06:51:39;;;;;;;;;;;;;;;;;;2200096;67;1194;-70
2021/12/18 06:54:12;;;;;;;;;;;;;;;;;;2199773;67;1999;-70
2021/12/18 06:56:45;;;;;;;;;;;;;;;;;;2200045;59;1548;-70
2021/12/18 06:59:19;;;;;;;;;;;;;;;;;;2200077;67;1361;-70
2021/12/18 07:01:54;;;;;;;;;;;;;;;;;;2200391;67;1266;-70
2021/12/18 07:04:28;;;;;;;;;;;;;;;;;;2199775;67;1173;-71
2021/12/18 07:07:01;;;;;;;;;;;;;;;;;;2200863;67;1079;-70
2021/12/18 07:09:34;;;;;;;;;;;;;;;;;;2200526;67;1240;-71
2021/12/18 07:12:08;;;;;;;;;;;;;;;;;;2199844;59;1235;-70
2021/12/18 07:14:41;;;;;;;;;;;;;;;;;;2199112;67;1983;-70
2021/12/18 07:17:17;;;;;;;;;;;;;;;;;;2202262;67;1085;-70
2021/12/18 07:19:50;;;;;;;;;;;;;;;;;;2200053;59;1140;-70
2021/12/18 07:22:24;;;;;;;;;;;;;;;;;;2200193;59;1242;-70
2021/12/18 07:24:57;;;;;;;;;;;;;;;;;;2198858;67;1090;-71
2021/12/18 07:27:30;;;;;;;;;;;;;;;;;;2200193;67;1304;-70
2021/12/18 07:30:03;;;;;;;;;;;;;;;;;;2200362;59;1413;-70
2021/12/18 07:32:39;;;;;;;;;;;;;;;;;;2200292;67;1211;-71
2021/12/18 07:35:13;;;;;;;;;;;;;;;;;;2199776;67;1937;-70
2021/12/18 07:37:47;;;;;;;;;;;;;;;;;;2200597;67;1108;-70
2021/12/18 07:40:20;;;;;;;;;;;;;;;;;;2201854;67;1272;-70
2021/12/18 07:42:53;;;;;;;;;;;;;;;;;;2199979;67;1806;-70
2021/12/18 07:45:26;;;;;;;;;;;;;;;;;;2200305;67;1198;-70
2021/12/18 07:48:02;;;;;;;;;;;;;;;;;;2199297;67;1107;-70
2021/12/18 07:50:35;;;;;;;;;;;;;;;;;;2199876;67;1234;-71
2021/12/18 07:53:08;;;;;;;;;;;;;;;;;;2199485;67;1257;-70
2021/12/18 07:55:41;;;;;;;;;;;;;;;;;;2200152;59;1938;-70
2021/12/18 07:58:15;;;;;;;;;;;;;;;;;;2199547;59;1370;-70
2021/12/18 08:00:48;;;;;;;;;;;;;;;;;;2200241;67;1289;-70
2021/12/18 08:03:24;;;;;;;;;;;;;;;;;;2199679;59;1307;-70
2021/12/18 08:05:57;;;;;;;;;;;;;;;;;;2201263;66;1264;-71
2021/12/18 08:08:30;;;;;;;;;;;;;;;;;;2203012;67;1835;-70
2021/12/18 08:14:25;;;;;;;;;;;;;;;;;;2218166;58;1929;-69
2021/12/18 08:16:59;;;;;;;;;;;;;;;;;;2219119;58;2481;-69
2021/12/18 08:19:35;;;;;;;;;;;;;;;;;;2221993;66;1198;-69
2021/12/18 08:22:16;;;;;;;;;;;;;;;;;;2221170;58;1448;-69
2021/12/18 08:24:50;;;;;;;;;;;;;;;;;;2220208;66;1177;-70
2021/12/18 08:27:26;;;;;;;;;;;;;;;;;;2217350;58;1781;-69
2021/12/18 08:30:03;;;;;;;;;;;;;;;;;;2219880;58;1270;-69
2021/12/18 08:32:51;;;;;;;;;;;;;;;;;;2219566;66;1310;-69
2021/12/18 08:35:29;;;;;;;;;;;;;;;;;;2218735;58;1963;-69
2021/12/18 08:38:03;;;;;;;;;;;;;;;;;;2218723;59;1984;-70
2021/12/18 08:40:41;;;;;;;;;;;;;;;;;;2219132;66;1301;-69
2021/12/18 08:43:18;;;;;;;;;;;;;;;;;;2219378;58;1288;-70
2021/12/18 08:45:54;;;;;;;;;;;;;;;;;;2219469;59;1151;-69
2021/12/18 08:48:31;;;;;;;;;;;;;;;;;;2219748;58;1243;-69
2021/12/18 08:51:09;;;;;;;;;;;;;;;;;;2219806;66;1221;-69
2021/12/18 08:53:42;;;;;;;;;;;;;;;;;;2218802;66;1232;-69
2021/12/18 08:56:28;;;;;;;;;;;;;;;;;;;;;
2021/12/18 08:59:03;;;;;;;;;;;;;;;;;;2219117;58;1736;-69
2021/12/18 09:01:40;;;;;;;;;;;;;;;;;;2215682;58;1733;-69
2021/12/18 09:04:13;;;;;;;;;;;;;;;;;;2215563;66;1172;-69
2021/12/18 09:07:08;;;;;;;;;;;;;;;;;;2219152;66;1271;-69
2021/12/18 09:09:46;;;;;;;;;;;;;;;;;;2218658;66;1034;-70
2021/12/18 09:12:20;;;;;;;;;;;;;;;;;;2219635;58;1293;-70
2021/12/18 09:14:54;;;;;;;;;;;;;;;;;;2219479;58;1992;-70
2021/12/18 09:20:59;;;;;;;;;;;;;;;;;;2209984;58;1446;-70
2021/12/18 09:23:33;;;;;;;;;;;;;;;;;;2217392;58;1666;-70
2021/12/18 09:28:58;;;;;;;;;;;;;;;;;;2219740;58;2106;-70
2021/12/18 09:31:32;;;;;;;;;;;;;;;;;;2218182;58;2562;-70
2021/12/18 09:34:15;;;;;;;;;;;;;;;;;;2218452;59;2589;-70
2021/12/18 09:36:49;;;;;;;;;;;;;;;;;;2219622;66;1046;-70
2021/12/18 09:39:44;;;;;;;;;;;;;;;;;;2219491;58;1620;-69
2021/12/18 09:42:24;;;;;;;;;;;;;;;;;;2216641;58;1815;-70
2021/12/18 09:44:57;;;;;;;;;;;;;;;;;;2219106;58;1181;-69
2021/12/18 09:47:31;;;;;;;;;;;;;;;;;;2218267;66;1298;-70
2021/12/18 09:50:05;;;;;;;;;;;;;;;;;;2219402;66;1240;-70
2021/12/18 09:52:39;;;;;;;;;;;;;;;;;;2219479;58;1809;-70
2021/12/18 09:55:13;;;;;;;;;;;;;;;;;;2218867;66;1939;-70
2021/12/18 09:57:50;;;;;;;;;;;;;;;;;;2217402;58;1580;-70
2021/12/18 10:00:24;;;;;;;;;;;;;;;;;;2219344;59;1280;-70
2021/12/18 10:02:58;;;;;;;;;;;;;;;;;;2219392;58;1237;-70
2021/12/18 10:05:33;;;;;;;;;;;;;;;;;;2218779;66;1172;-70
2021/12/18 10:08:09;;;;;;;;;;;;;;;;;;2222166;66;1207;-70
2021/12/18 10:11:00;;;;;;;;;;;;;;;;;;2218822;66;1134;-70
2021/12/18 10:13:51;;;;;;;;;;;;;;;;;;2221487;58;1320;-70
2021/12/18 10:16:26;;;;;;;;;;;;;;;;;;2222067;66;1984;-70
2021/12/18 10:19:01;;;;;;;;;;;;;;;;;;2220745;59;1316;-70
2021/12/18 10:21:35;;;;;;;;;;;;;;;;;;2219360;58;1880;-70
2021/12/18 10:24:17;;;;;;;;;;;;;;;;;;2217823;58;1696;-69
2021/12/18 10:26:50;;;;;;;;;;;;;;;;;;2218568;59;1145;-70
2021/12/18 10:29:31;;;;;;;;;;;;;;;;;;2219865;58;1424;-70
2021/12/18 10:32:06;;;;;;;;;;;;;;;;;;2218673;66;2614;-70
2021/12/18 10:34:40;;;;;;;;;;;;;;;;;;2216339;59;2324;-70
2021/12/18 10:37:15;;;;;;;;;;;;;;;;;;2218702;66;1258;-69
2021/12/18 10:39:58;;;;;;;;;;;;;;;;;;2219485;59;1156;-69
2021/12/18 10:42:33;;;;;;;;;;;;;;;;;;2218753;58;2203;-70
2021/12/18 10:45:11;;;;;;;;;;;;;;;;;;2219861;58;1313;-69
2021/12/18 10:47:46;;;;;;;;;;;;;;;;;;2218297;66;1183;-69
2021/12/18 10:50:21;;;;;;;;;;;;;;;;;;2219220;58;1077;-70
2021/12/18 10:52:56;;;;;;;;;;;;;;;;;;2218463;58;2721;-70
2021/12/18 10:55:31;;;;;;;;;;;;;;;;;;2219634;59;1975;-70
2021/12/18 10:58:08;;;;;;;;;;;;;;;;;;2218860;58;1799;-70
2021/12/18 11:00:50;;;;;;;;;;;;;;;;;;2219350;58;1264;-70
2021/12/18 11:03:25;;;;;;;;;;;;;;;;;;2217162;58;1428;-70
2021/12/18 11:06:06;;;;;;;;;;;;;;;;;;2219641;58;1916;-70
2021/12/18 11:08:52;;;;;;;;;;;;;;;;;;2218619;58;1334;-70
2021/12/18 11:14:16;;;;;;;;;;;;;;;;;;2218833;66;1093;-70
2021/12/18 11:16:53;;;;;;;;;;;;;;;;;;2218575;66;1996;-70
2021/12/18 11:19:27;;;;;;;;;;;;;;;;;;2218606;58;2220;-69
2021/12/18 11:22:02;;;;;;;;;;;;;;;;;;2219439;58;1289;-69
2021/12/18 11:24:37;;;;;;;;;;;;;;;;;;2218721;58;1298;-70
2021/12/18 11:27:12;;;;;;;;;;;;;;;;;;2219296;58;1230;-70
2021/12/18 11:29:47;;;;;;;;;;;;;;;;;;2219426;59;1284;-70
2021/12/18 11:32:26;;;;;;;;;;;;;;;;;;2219813;66;1251;-70
2021/12/18 11:35:03;;;;;;;;;;;;;;;;;;2217327;58;2568;-69
2021/12/18 11:37:39;;;;;;;;;;;;;;;;;;2218489;59;1160;-70
2021/12/18 11:40:14;;;;;;;;;;;;;;;;;;2220144;59;1333;-69
2021/12/18 11:42:48;;;;;;;;;;;;;;;;;;2219813;58;1356;-70
2021/12/18 11:45:21;;;;;;;;;;;;;;;;;;2220108;66;1098;-70
2021/12/18 11:48:00;;;;;;;;;;;;;;;;;;2219805;66;1105;-70
2021/12/18 11:50:34;;;;;;;;;;;;;;;;;;2219382;66;1248;-70
2021/12/18 11:53:09;;;;;;;;;;;;;;;;;;2219781;58;1236;-70
2021/12/18 11:55:57;;;;;;;;;;;;;;;;;;2218479;58;2293;-70
2021/12/18 11:58:32;;;;;;;;;;;;;;;;;;2219129;66;1180;-69
2021/12/18 12:01:16;;;;;;;;;;;;;;;;;;2219392;59;1246;-70
2021/12/18 12:04:00;;;;;;;;;;;;;;;;;;2219087;58;1320;-70
2021/12/18 12:06:38;;;;;;;;;;;;;;;;;;2220015;66;1128;-70
2021/12/18 12:09:25;;;;;;;;;;;;;;;;;;2217886;58;1266;-69
2021/12/18 12:12:00;;;;;;;;;;;;;;;;;;2218836;58;1297;-70
2021/12/18 12:14:34;;;;;;;;;;;;;;;;;;2219900;66;1238;-72
2021/12/18 12:17:14;;;;;;;;;;;;;;;;;;2220463;66;1981;-70
2021/12/18 12:20:01;;;;;;;;;;;;;;;;;;2218919;58;1505;-70
2021/12/18 12:23:01;;;;;;;;;;;;;;;;;;2218976;66;1418;-69
2021/12/18 12:25:36;;;;;;;;;;;;;;;;;;2218552;58;1421;-70
2021/12/18 12:28:18;;;;;;;;;;;;;;;;;;2219823;59;1532;-70
2021/12/18 12:30:53;;;;;;;;;;;;;;;;;;2218960;58;1691;-70
2021/12/18 12:33:29;;;;;;;;;;;;;;;;;;2218442;66;1301;-70
2021/12/18 12:36:10;;;;;;;;;;;;;;;;;;2217481;59;2823;-70
2021/12/18 12:38:45;;;;;;;;;;;;;;;;;;2219111;66;1229;-70
2021/12/18 12:41:29;;;;;;;;;;;;;;;;;;2220251;66;1230;-70
2021/12/18 12:44:05;;;;;;;;;;;;;;;;;;2220305;58;1335;-70
2021/12/18 12:46:39;;;;;;;;;;;;;;;;;;2219992;66;1121;-70
2021/12/18 12:49:15;;;;;;;;;;;;;;;;;;2219791;66;1274;-70
2021/12/18 12:52:11;;;;;;;;;;;;;;;;;;2219176;66;1202;-70
2021/12/18 12:54:49;;;;;;;;;;;;;;;;;;2219364;59;1242;-70
2021/12/18 12:57:40;;;;;;;;;;;;;;;;;;2218980;66;1924;-70
2021/12/18 13:00:36;;;;;;;;;;;;;;;;;;2219444;66;1281;-70
2021/12/18 13:03:21;;;;;;;;;;;;;;;;;;2219289;58;1593;-70
2021/12/18 13:05:56;;;;;;;;;;;;;;;;;;2218784;59;1719;-70
2021/12/18 13:08:33;;;;;;;;;;;;;;;;;;2219116;66;1282;-70
2021/12/18 13:11:06;;;;;;;;;;;;;;;;;;2219760;59;1150;-70
2021/12/18 13:13:40;;;;;;;;;;;;;;;;;;2218287;58;1459;-70
2021/12/18 13:16:14;;;;;;;;;;;;;;;;;;2220378;66;1948;-70
2021/12/18 13:18:49;;;;;;;;;;;;;;;;;;2219141;58;1859;-70
2021/12/18 13:21:23;;;;;;;;;;;;;;;;;;2218741;59;1650;-70
2021/12/18 13:24:01;;;;;;;;;;;;;;;;;;2220103;58;1342;-70
2021/12/18 13:26:35;;;;;;;;;;;;;;;;;;2220365;66;1302;-70
2021/12/18 13:29:10;;;;;;;;;;;;;;;;;;2220317;58;1458;-70
2021/12/18 13:31:47;;;;;;;;;;;;;;;;;;2217964;58;1717;-70
2021/12/18 13:34:22;;;;;;;;;;;;;;;;;;2218948;66;1198;-70
2021/12/18 13:36:57;;;;;;;;;;;;;;;;;;2217503;59;2526;-70
2021/12/18 13:39:33;;;;;;;;;;;;;;;;;;2220233;59;1267;-70
2021/12/18 13:42:09;;;;;;;;;;;;;;;;;;2219213;66;1261;-70
2021/12/18 13:44:48;;;;;;;;;;;;;;;;;;2219701;66;1278;-70
2021/12/18 13:47:47;;;;;;;;;;;;;;;;;;2218706;66;1235;-70
2021/12/18 13:50:22;;;;;;;;;;;;;;;;;;2218412;58;1325;-70
2021/12/18 13:52:57;;;;;;;;;;;;;;;;;;2218808;59;1306;-70
2021/12/18 13:55:35;;;;;;;;;;;;;;;;;;2220053;66;1243;-70
2021/12/18 13:58:10;;;;;;;;;;;;;;;;;;2219066;58;1949;-70
2021/12/18 14:01:01;;;;;;;;;;;;;;;;;;2218637;66;1270;-70
2021/12/18 14:03:36;;;;;;;;;;;;;;;;;;2219050;58;1329;-70
2021/12/18 14:06:13;;;;;;;;;;;;;;;;;;2218870;58;1459;-70
2021/12/18 14:08:48;;;;;;;;;;;;;;;;;;2219783;66;1226;-69
2021/12/18 14:14:09;;;;;;;;;;;;;;;;;;2194841;59;1621;-70
2021/12/18 14:16:52;;;;;;;;;;;;;;;;;;2198516;59;1987;-70
2021/12/18 14:19:27;;;;;;;;;;;;;;;;;;2199253;67;1278;-70
2021/12/18 14:22:01;;;;;;;;;;;;;;;;;;2203506;59;1838;-70
2021/12/18 14:24:34;;;;;;;;;;;;;;;;;;2216254;58;1329;-70
2021/12/18 14:27:08;;;;;;;;;;;;;;;;;;2216850;58;1535;-70
2021/12/18 14:29:50;;;;;;;;;;;;;;;;;;2217155;58;1889;-70
2021/12/18 14:32:24;;;;;;;;;;;;;;;;;;2216845;58;1784;-70
2021/12/18 14:35:04;;;;;;;;;;;;;;;;;;2216936;66;1142;-70
2021/12/18 14:37:48;;;;;;;;;;;;;;;;;;2215298;59;2714;-70
2021/12/18 14:40:23;;;;;;;;;;;;;;;;;;2215659;58;2373;-70
2021/12/18 14:42:58;;;;;;;;;;;;;;;;;;2215268;58;1902;-70
2021/12/18 14:45:34;;;;;;;;;;;;;;;;;;2215432;58;1324;-70
2021/12/18 14:48:08;;;;;;;;;;;;;;;;;;2214913;58;1452;-70
2021/12/18 14:50:43;;;;;;;;;;;;;;;;;;2216314;59;1456;-70
2021/12/18 14:53:20;;;;;;;;;;;;;;;;;;2214989;59;1269;-70
2021/12/18 14:55:54;;;;;;;;;;;;;;;;;;2215363;59;1895;-70
2021/12/18 14:58:29;;;;;;;;;;;;;;;;;;2216438;58;1965;-70
2021/12/18 15:01:07;;;;;;;;;;;;;;;;;;2217761;66;1211;-70
2021/12/18 15:03:41;;;;;;;;;;;;;;;;;;2218341;58;1574;-70
2021/12/18 15:06:16;;;;;;;;;;;;;;;;;;2217932;58;1420;-70
2021/12/18 15:08:53;;;;;;;;;;;;;;;;;;2217277;66;1207;-70
2021/12/18 15:11:27;;;;;;;;;;;;;;;;;;2217504;59;1390;-70
2021/12/18 15:14:05;;;;;;;;;;;;;;;;;;2225411;58;1249;-70
2021/12/18 15:16:41;;;;;;;;;;;;;;;;;;2225404;58;1924;-70
2021/12/18 15:19:17;;;;;;;;;;;;;;;;;;2222559;58;1240;-70
2021/12/18 15:21:52;;;;;;;;;;;;;;;;;;2226571;66;1174;-70
2021/12/18 15:24:26;;;;;;;;;;;;;;;;;;2225505;58;1355;-70
2021/12/18 15:27:00;;;;;;;;;;;;;;;;;;2226619;66;1276;-70
2021/12/18 15:29:35;;;;;;;;;;;;;;;;;;2226482;58;1298;-70
2021/12/18 15:32:12;;;;;;;;;;;;;;;;;;2226744;66;1169;-70
2021/12/18 15:34:49;;;;;;;;;;;;;;;;;;2225143;66;1115;-70
2021/12/18 15:37:22;;;;;;;;;;;;;;;;;;2226450;58;1923;-70
2021/12/18 15:39:55;;;;;;;;;;;;;;;;;;2226508;66;1207;-70
2021/12/18 15:42:31;;;;;;;;;;;;;;;;;;2226504;59;1263;-70
2021/12/18 15:45:04;;;;;;;;;;;;;;;;;;2224876;58;1694;-70
2021/12/18 15:47:40;;;;;;;;;;;;;;;;;;2225375;58;1744;-70
2021/12/18 15:50:14;;;;;;;;;;;;;;;;;;2225154;58;1768;-70
2021/12/18 15:52:47;;;;;;;;;;;;;;;;;;2225035;66;1227;-70
2021/12/18 15:55:20;;;;;;;;;;;;;;;;;;2225711;58;1253;-70
2021/12/18 15:57:54;;;;;;;;;;;;;;;;;;2226232;58;2003;-70
2021/12/18 16:00:28;;;;;;;;;;;;;;;;;;2224313;58;1714;-70
2021/12/18 16:03:04;;;;;;;;;;;;;;;;;;2224880;58;1209;-70
2021/12/18 16:05:39;;;;;;;;;;;;;;;;;;2225861;59;1302;-70
2021/12/18 16:08:12;;;;;;;;;;;;;;;;;;2226217;66;1325;-70
2021/12/18 16:10:46;;;;;;;;;;;;;;;;;;2225409;58;1836;-70
2021/12/18 16:13:19;;;;;;;;;;;;;;;;;;2226234;58;1590;-70
2021/12/18 16:15:53;;;;;;;;;;;;;;;;;;2225354;58;1817;-70
2021/12/18 16:18:30;;;;;;;;;;;;;;;;;;2225914;66;1922;-70
2021/12/18 16:21:03;;;;;;;;;;;;;;;;;;2225420;66;1139;-69
2021/12/18 16:23:37;;;;;;;;;;;;;;;;;;2226151;58;1195;-70
2021/12/18 16:26:11;;;;;;;;;;;;;;;;;;2225676;58;1128;-70
2021/12/18 16:28:44;;;;;;;;;;;;;;;;;;2226027;58;1265;-70
2021/12/18 16:31:17;;;;;;;;;;;;;;;;;;2226390;58;1437;-70
2021/12/18 16:33:53;;;;;;;;;;;;;;;;;;2227485;66;1234;-69
2021/12/18 16:36:30;;;;;;;;;;;;;;;;;;2228638;66;1222;-70
2021/12/18 16:39:07;;;;;;;;;;;;;;;;;;2226897;66;2000;-70
2021/12/18 16:41:41;;;;;;;;;;;;;;;;;;2227956;58;1134;-71
2021/12/18 16:44:15;;;;;;;;;;;;;;;;;;2227258;66;1193;-70
2021/12/18 16:46:48;;;;;;;;;;;;;;;;;;2228107;58;1288;-70
2021/12/18 16:49:24;;;;;;;;;;;;;;;;;;2227043;58;1300;-70
2021/12/18 16:51:57;;;;;;;;;;;;;;;;;;2226375;66;1210;-70
2021/12/18 16:54:30;;;;;;;;;;;;;;;;;;2223967;59;1352;-70
2021/12/18 16:57:03;;;;;;;;;;;;;;;;;;2227622;58;1986;-70
2021/12/18 16:59:37;;;;;;;;;;;;;;;;;;2227366;58;1241;-70
2021/12/18 17:02:10;;;;;;;;;;;;;;;;;;2228586;58;1245;-70
2021/12/18 17:04:47;;;;;;;;;;;;;;;;;;2227032;66;1353;-70
2021/12/18 17:07:20;;;;;;;;;;;;;;;;;;2226891;66;1326;-70
2021/12/18 17:09:54;;;;;;;;;;;;;;;;;;2227185;58;1741;-70
2021/12/18 17:12:27;;;;;;;;;;;;;;;;;;2225716;58;1989;-70
2021/12/18 17:15:00;;;;;;;;;;;;;;;;;;2226204;66;1110;-69
2021/12/18 17:17:34;;;;;;;;;;;;;;;;;;2226045;66;1932;-70
2021/12/18 17:20:11;;;;;;;;;;;;;;;;;;2226386;66;1082;-70
2021/12/18 17:22:44;;;;;;;;;;;;;;;;;;2225807;58;1281;-70
2021/12/18 17:25:19;;;;;;;;;;;;;;;;;;2226969;66;1312;-69
2021/12/18 17:27:52;;;;;;;;;;;;;;;;;;2225683;66;1262;-70
2021/12/18 17:30:27;;;;;;;;;;;;;;;;;;2226539;58;1329;-70
2021/12/18 17:33:00;;;;;;;;;;;;;;;;;;2227128;58;1235;-70
2021/12/18 17:35:39;;;;;;;;;;;;;;;;;;2227488;66;1253;-70
2021/12/18 17:38:12;;;;;;;;;;;;;;;;;;2227853;66;1973;-69
2021/12/18 17:40:45;;;;;;;;;;;;;;;;;;2227463;66;1160;-70
2021/12/18 17:43:18;;;;;;;;;;;;;;;;;;2226710;58;1684;-69
2021/12/18 17:45:52;;;;;;;;;;;;;;;;;;2225645;58;2016;-70
2021/12/18 17:48:25;;;;;;;;;;;;;;;;;;2224688;58;1617;-70
2021/12/18 17:51:02;;;;;;;;;;;;;;;;;;2221915;58;1713;-69
2021/12/18 17:53:37;;;;;;;;;;;;;;;;;;2223794;66;1327;-69
2021/12/18 17:56:10;;;;;;;;;;;;;;;;;;2226126;58;1584;-69
2021/12/18 17:58:45;;;;;;;;;;;;;;;;;;2225403;58;1978;-70
2021/12/18 18:01:18;;;;;;;;;;;;;;;;;;2224472;58;2431;-70
2021/12/18 18:03:51;;;;;;;;;;;;;;;;;;2225351;58;2503;-70
2021/12/18 18:06:27;;;;;;;;;;;;;;;;;;2224806;58;1736;-69
2021/12/18 18:09:01;;;;;;;;;;;;;;;;;;2225887;58;1196;-70
2021/12/18 18:11:35;;;;;;;;;;;;;;;;;;2225521;58;1805;-70
2021/12/18 18:14:08;;;;;;;;;;;;;;;;;;2225731;58;1185;-70
2021/12/18 18:16:41;;;;;;;;;;;;;;;;;;2227019;59;1099;-70
2021/12/18 18:19:14;;;;;;;;;;;;;;;;;;2226294;66;1940;-70
2021/12/18 18:21:50;;;;;;;;;;;;;;;;;;2226196;58;1678;-70
2021/12/18 18:24:23;;;;;;;;;;;;;;;;;;2226201;66;1350;-70
2021/12/18 18:26:56;;;;;;;;;;;;;;;;;;2226043;66;1308;-70
2021/12/18 18:29:29;;;;;;;;;;;;;;;;;;2225499;58;1464;-70
2021/12/18 18:32:03;;;;;;;;;;;;;;;;;;2227040;66;1188;-70
2021/12/18 18:34:36;;;;;;;;;;;;;;;;;;2227015;66;1050;-70
2021/12/18 18:37:12;;;;;;;;;;;;;;;;;;2227029;58;1248;-70
2021/12/18 18:39:45;;;;;;;;;;;;;;;;;;2227513;58;1932;-70
2021/12/18 18:42:18;;;;;;;;;;;;;;;;;;2224555;66;1416;-70
2021/12/18 18:44:57;;;;;;;;;;;;;;;;;;2227955;58;1857;-70
2021/12/18 18:47:34;;;;;;;;;;;;;;;;;;2225645;58;1825;-70
2021/12/18 18:50:08;;;;;;;;;;;;;;;;;;2227356;66;1154;-70
2021/12/18 18:52:44;;;;;;;;;;;;;;;;;;2227050;59;1282;-70
2021/12/18 18:55:18;;;;;;;;;;;;;;;;;;2225363;66;1533;-70